Time;durP1;ratioP1;P1;durP2;ratioP2;P2;SDS_P1;SDS_P2;PMS_P1;PMS_P2;Temp;Humidity;BMP_temperature;BMP_pressure;BME280_temperature;BME280_humidity;BME280_pressure;Samples;Min_cycle;Max_cycle;Signal;HPM_P1;HPM_P2
2022/09/10 00:00:56;;;;;;;19.73;17.70;;;15.40;99.90;;;;;;4994927;28;20101;-70
2022/09/10 00:03:23;;;;;;;23.97;18.47;;;15.30;99.90;;;;;;4977784;28;20054;-70
2022/09/10 00:05:49;;;;;;;22.77;19.43;;;15.30;99.90;;;;;;4994820;28;20054;-70
2022/09/10 00:08:16;;;;;;;25.37;19.60;;;15.30;99.90;;;;;;4994706;28;20041;-70
2022/09/10 00:10:44;;;;;;;23.20;20.43;;;15.40;99.90;;;;;;4994855;28;20057;-70
2022/09/10 00:13:11;;;;;;;23.17;20.63;;;15.40;99.90;;;;;;4994850;28;20042;-70
2022/09/10 00:15:41;;;;;;;21.73;19.43;;;15.40;99.90;;;;;;4994474;28;20555;-70
2022/09/10 00:18:08;;;;;;;25.77;21.90;;;15.40;99.90;;;;;;4994833;28;20042;-70
2022/09/10 00:20:55;;;;;;;26.33;21.37;;;15.40;99.90;;;;;;4995185;28;20379;-71
2022/09/10 00:23:24;;;;;;;26.17;21.10;;;15.40;99.90;;;;;;4994199;28;20058;-70
2022/09/10 00:25:55;;;;;;;23.90;21.30;;;15.40;99.90;;;;;;4994595;28;20061;-70
2022/09/10 00:28:23;;;;;;;26.67;21.97;;;15.40;99.90;;;;;;4994530;28;20046;-70
2022/09/10 00:30:51;;;;;;;24.67;21.40;;;15.40;99.90;;;;;;4995064;28;20046;-70
2022/09/10 00:33:18;;;;;;;27.33;21.87;;;15.40;99.90;;;;;;4994519;28;20046;-70
2022/09/10 00:35:44;;;;;;;26.47;23.20;;;15.50;99.90;;;;;;4994231;28;20486;-70
2022/09/10 00:38:11;;;;;;;28.60;22.10;;;15.50;99.90;;;;;;4994364;28;20086;-70
2022/09/10 00:40:38;;;;;;;24.97;21.87;;;15.40;99.90;;;;;;4994373;28;20085;-70
2022/09/10 00:43:15;;;;;;;31.47;23.90;;;15.40;99.90;;;;;;4995160;28;20129;-70
2022/09/10 00:45:42;;;;;;;28.63;24.97;;;15.50;99.90;;;;;;4994402;28;20093;-70
2022/09/10 00:48:23;;;;;;;27.40;24.33;;;15.50;99.90;;;;;;4994251;28;20462;-70
2022/09/10 00:50:52;;;;;;;29.43;24.07;;;15.50;99.90;;;;;;4994264;28;20101;-70
2022/09/10 00:53:23;;;;;;;29.13;23.27;;;15.50;99.90;;;;;;4993289;28;20046;-70
2022/09/10 00:55:53;;;;;;;29.30;24.97;;;15.50;99.90;;;;;;4994219;28;20130;-69
2022/09/10 00:58:21;;;;;;;26.73;23.63;;;15.50;99.90;;;;;;4994264;28;20034;-70
2022/09/10 01:00:47;;;;;;;26.27;23.40;;;15.50;99.90;;;;;;4993013;28;20039;-69
2022/09/10 01:03:15;;;;;;;28.73;24.50;;;15.50;99.90;;;;;;4992881;28;20046;-70
2022/09/10 01:05:44;;;;;;;27.57;23.57;;;15.60;99.90;;;;;;4994609;28;20073;-70
2022/09/10 01:08:14;;;;;;;29.73;25.63;;;15.60;99.90;;;;;;4994472;28;20080;-69
2022/09/10 01:10:55;;;;;;;35.63;25.10;;;15.50;99.90;;;;;;4994818;28;20174;-70
2022/09/10 01:13:35;;;;;;;28.37;24.93;;;15.60;99.90;;;;;;4995143;28;20129;-69
2022/09/10 01:16:21;;;;;;;29.03;25.07;;;15.50;99.90;;;;;;4994123;28;20086;-69
2022/09/10 01:18:51;;;;;;;31.38;25.27;;;15.50;99.90;;;;;;4994080;28;20046;-70
2022/09/10 01:21:34;;;;;;;30.33;24.93;;;15.60;99.90;;;;;;4993953;28;20081;-70
2022/09/10 01:24:18;;;;;;;34.37;27.23;;;15.50;99.90;;;;;;4994148;28;20390;-70
2022/09/10 01:26:58;;;;;;;29.53;25.57;;;15.50;99.90;;;;;;4993543;28;20518;-69
2022/09/10 01:29:37;;;;;;;33.33;25.17;;;15.60;99.90;;;;;;4994191;28;20213;-70
2022/09/10 01:32:16;;;;;;;31.83;27.53;;;15.60;99.90;;;;;;4994135;28;20058;-70
2022/09/10 01:34:59;;;;;;;30.80;26.10;;;15.60;99.90;;;;;;4994126;28;20061;-70
2022/09/10 01:37:28;;;;;;;31.77;26.37;;;15.60;99.90;;;;;;4994633;28;20125;-70
2022/09/10 01:39:56;;;;;;;34.23;27.33;;;15.50;99.90;;;;;;4994222;28;20053;-69
2022/09/10 01:42:28;;;;;;;34.27;26.90;;;15.50;99.90;;;;;;4994284;28;20051;-69
2022/09/10 01:44:56;;;;;;;29.53;25.53;;;15.60;99.90;;;;;;4994415;28;20049;-70
2022/09/10 01:47:59;;;;;;;36.70;28.10;;;15.60;99.90;;;;;;4993344;28;20495;-70
2022/09/10 01:50:59;;;;;;;35.97;28.63;;;15.60;99.90;;;;;;4993646;28;20057;-69
2022/09/10 01:53:40;;;;;;;32.33;27.47;;;15.60;99.90;;;;;;4959406;28;20058;-69
2022/09/10 01:56:35;;;;;;;36.53;27.90;;;15.60;99.90;;;;;;4994372;28;20102;-70
2022/09/10 01:59:33;;;;;;;33.92;27.77;;;15.60;99.90;;;;;;4993625;28;20050;-70
2022/09/10 02:02:19;;;;;;;32.00;27.93;;;15.70;99.90;;;;;;4996508;28;20374;-70
2022/09/10 02:04:46;;;;;;;31.70;27.87;;;15.70;99.90;;;;;;4993314;28;20055;-70
2022/09/10 02:07:15;;;;;;;33.53;29.27;;;15.60;99.90;;;;;;4997013;28;20042;-69
2022/09/10 02:09:41;;;;;;;37.70;28.23;;;15.60;99.90;;;;;;4997096;28;20093;-69
2022/09/10 02:12:11;;;;;;;35.57;30.90;;;15.60;99.90;;;;;;4997045;28;20054;-70
2022/09/10 02:14:37;;;;;;;40.63;29.70;;;15.60;99.90;;;;;;4996297;28;20050;-69
2022/09/10 02:17:03;;;;;;;36.70;28.90;;;15.60;99.90;;;;;;4996880;28;20368;-69
2022/09/10 02:19:28;;;;;;;34.97;30.77;;;15.60;99.90;;;;;;4996634;28;20057;-69
2022/09/10 02:21:55;;;;;;;38.23;29.60;;;15.60;99.90;;;;;;4997340;28;20054;-69
2022/09/10 02:24:21;;;;;;;39.23;30.60;;;15.60;99.90;;;;;;4995193;28;20057;-69
2022/09/10 02:26:48;;;;;;;36.40;31.57;;;15.60;99.90;;;;;;4996600;28;20046;-69
2022/09/10 02:29:15;;;;;;;39.27;32.60;;;15.50;99.90;;;;;;4997259;28;20050;-69
2022/09/10 02:31:42;;;;;;;41.03;31.40;;;15.50;99.90;;;;;;4996996;28;20224;-69
2022/09/10 02:34:09;;;;;;;39.27;32.10;;;15.50;99.90;;;;;;4995544;28;20426;-69
2022/09/10 02:36:36;;;;;;;36.33;30.60;;;15.50;99.90;;;;;;4997371;28;20121;-69
2022/09/10 02:39:03;;;;;;;37.70;30.50;;;15.40;99.90;;;;;;4995281;28;20122;-70
2022/09/10 02:41:32;;;;;;;40.67;32.77;;;15.40;99.90;;;;;;4996526;28;20061;-70
2022/09/10 02:44:02;;;;;;;42.37;33.37;;;15.40;99.90;;;;;;4996379;28;20483;-70
2022/09/10 02:46:28;;;;;;;42.37;31.80;;;15.40;99.90;;;;;;4996397;28;20047;-69
2022/09/10 02:48:54;;;;;;;42.30;32.43;;;15.40;99.90;;;;;;4996342;28;20058;-69
2022/09/10 02:51:21;;;;;;;41.97;33.60;;;15.40;99.90;;;;;;4996338;28;20065;-69
2022/09/10 02:53:48;;;;;;;46.00;33.67;;;15.40;99.90;;;;;;4996735;28;20054;-73
2022/09/10 02:56:14;;;;;;;39.30;32.77;;;15.30;99.90;;;;;;4995244;28;20061;-69
2022/09/10 02:58:39;;;;;;;47.97;33.73;;;15.20;99.90;;;;;;4996175;28;20100;-69
2022/09/10 03:01:05;;;;;;;41.40;33.43;;;15.20;99.90;;;;;;4996095;28;20058;-70
2022/09/10 03:03:32;;;;;;;40.63;31.53;;;15.20;99.90;;;;;;4995385;28;20054;-69
2022/09/10 03:05:57;;;;;;;40.03;33.27;;;15.20;99.90;;;;;;4996491;28;20486;-70
2022/09/10 03:08:24;;;;;;;38.83;34.07;;;15.20;99.90;;;;;;4995903;28;20121;-69
2022/09/10 03:10:49;;;;;;;42.90;34.70;;;15.20;99.90;;;;;;4995028;28;20384;-70
2022/09/10 03:13:15;;;;;;;44.03;33.87;;;15.20;99.90;;;;;;4994899;28;20057;-69
2022/09/10 03:15:43;;;;;;;37.97;32.00;;;15.10;99.90;;;;;;4996057;28;20514;-69
2022/09/10 03:18:09;;;;;;;46.73;35.20;;;15.10;99.90;;;;;;4994832;28;20065;-69
2022/09/10 03:20:35;;;;;;;39.67;34.17;;;15.20;99.90;;;;;;4995569;28;20049;-69
2022/09/10 03:23:02;;;;;;;43.83;35.67;;;15.10;99.90;;;;;;4995629;28;20077;-69
2022/09/10 03:25:28;;;;;;;45.47;34.13;;;15.10;99.90;;;;;;4995063;28;20430;-69
2022/09/10 03:27:54;;;;;;;46.97;36.03;;;15.10;99.90;;;;;;4995527;28;20050;-70
2022/09/10 03:30:20;;;;;;;39.17;33.93;;;15.10;99.90;;;;;;4996342;28;20042;-69
2022/09/10 03:32:47;;;;;;;41.70;35.00;;;15.00;99.90;;;;;;4995558;28;20096;-69
2022/09/10 03:35:15;;;;;;;41.57;35.57;;;15.00;99.90;;;;;;4996253;28;20054;-70
2022/09/10 03:37:43;;;;;;;43.90;35.83;;;15.00;99.90;;;;;;4995740;28;20047;-71
2022/09/10 03:40:09;;;;;;;46.30;35.37;;;15.00;99.90;;;;;;4995944;28;20434;-70
2022/09/10 03:42:35;;;;;;;46.23;35.20;;;15.00;99.90;;;;;;4995915;28;20046;-69
2022/09/10 03:45:01;;;;;;;40.47;33.33;;;15.00;99.90;;;;;;4995280;28;20380;-69
2022/09/10 03:47:26;;;;;;;38.93;32.63;;;15.00;99.90;;;;;;4994059;28;20125;-69
2022/09/10 03:49:52;;;;;;;43.07;35.37;;;15.00;99.90;;;;;;4995701;28;20057;-70
2022/09/10 03:52:21;;;;;;;42.73;34.73;;;15.00;99.90;;;;;;4995165;28;20109;-69
2022/09/10 03:54:48;;;;;;;43.33;34.70;;;15.10;99.90;;;;;;4995409;28;20046;-70
2022/09/10 03:57:14;;;;;;;39.00;34.63;;;15.10;99.90;;;;;;4995047;28;20053;-69
2022/09/10 03:59:40;;;;;;;41.77;33.70;;;15.10;99.90;;;;;;4995611;28;20545;-68
2022/09/10 04:02:08;;;;;;;37.93;33.33;;;15.10;99.90;;;;;;4994617;28;20065;-68
2022/09/10 04:04:36;;;;;;;37.63;32.57;;;15.10;99.90;;;;;;4994976;28;20414;-69
2022/09/10 04:07:04;;;;;;;44.67;33.67;;;15.10;99.90;;;;;;4994830;28;20088;-68
2022/09/10 04:09:31;;;;;;;40.33;32.70;;;15.10;99.90;;;;;;4994945;28;20085;-68
2022/09/10 04:11:58;;;;;;;38.80;33.37;;;15.10;99.90;;;;;;4994885;28;20046;-69
2022/09/10 04:14:25;;;;;;;36.67;32.77;;;15.20;99.90;;;;;;4994825;28;20050;-70
2022/09/10 04:16:51;;;;;;;44.43;34.43;;;15.20;99.90;;;;;;4994817;28;20113;-69
2022/09/10 04:19:16;;;;;;;41.83;32.27;;;15.10;99.90;;;;;;4993583;28;20082;-69
2022/09/10 04:21:42;;;;;;;38.17;32.67;;;15.20;99.90;;;;;;4993527;28;20090;-69
2022/09/10 04:24:11;;;;;;;37.20;31.97;;;15.20;99.90;;;;;;4993350;28;20093;-70
2022/09/10 04:26:36;;;;;;;39.67;31.27;;;15.20;99.90;;;;;;4994454;28;20092;-69
2022/09/10 04:29:02;;;;;;;38.33;31.77;;;15.20;99.90;;;;;;4994530;28;20086;-69
2022/09/10 04:31:28;;;;;;;39.63;32.70;;;15.20;99.90;;;;;;4994502;28;20046;-70
2022/09/10 04:33:54;;;;;;;41.87;33.97;;;15.20;99.90;;;;;;4994732;28;20089;-70
2022/09/10 04:36:19;;;;;;;39.50;32.10;;;15.20;99.90;;;;;;4994443;28;20426;-70
2022/09/10 04:38:45;;;;;;;36.67;31.37;;;15.20;99.90;;;;;;4994397;28;20126;-70
2022/09/10 04:41:14;;;;;;;37.23;30.80;;;15.20;99.90;;;;;;4994335;28;20078;-69
2022/09/10 04:43:40;;;;;;;37.70;32.80;;;15.20;99.90;;;;;;4994362;28;20438;-70
2022/09/10 04:46:06;;;;;;;37.33;30.27;;;15.20;99.90;;;;;;4994249;28;20054;-70
2022/09/10 04:48:32;;;;;;;39.10;31.67;;;15.20;99.90;;;;;;4994408;28;20124;-70
2022/09/10 04:50:58;;;;;;;34.37;30.33;;;15.30;99.90;;;;;;4994471;28;20129;-69
2022/09/10 04:53:26;;;;;;;38.90;31.47;;;15.20;99.90;;;;;;4994179;28;20046;-70
2022/09/10 04:55:54;;;;;;;38.67;30.63;;;15.20;99.90;;;;;;4994122;28;20141;-69
2022/09/10 04:58:20;;;;;;;38.30;30.87;;;15.20;99.90;;;;;;4994647;28;20050;-70
2022/09/10 05:00:46;;;;;;;43.67;32.20;;;15.20;99.90;;;;;;4993910;28;20164;-70
2022/09/10 05:03:13;;;;;;;37.67;31.57;;;15.20;99.90;;;;;;4993133;28;20368;-70
2022/09/10 05:05:41;;;;;;;36.83;29.70;;;15.20;99.90;;;;;;4994065;28;20050;-69
2022/09/10 05:08:07;;;;;;;35.63;29.77;;;15.20;99.90;;;;;;4992855;28;20507;-70
2022/09/10 05:10:35;;;;;;;34.10;30.03;;;15.30;99.90;;;;;;4994044;28;20403;-70
2022/09/10 05:13:01;;;;;;;31.80;27.07;;;15.20;99.90;;;;;;4993047;28;20054;-69
2022/09/10 05:15:27;;;;;;;32.00;28.30;;;15.20;99.90;;;;;;4993955;28;20046;-69
2022/09/10 05:17:53;;;;;;;37.93;30.17;;;15.20;99.90;;;;;;4993984;28;20043;-70
2022/09/10 05:20:19;;;;;;;34.47;29.97;;;15.20;99.90;;;;;;4994214;28;20048;-70
2022/09/10 05:22:44;;;;;;;38.40;29.30;;;15.20;99.90;;;;;;4992687;28;20061;-70
2022/09/10 05:25:10;;;;;;;37.60;29.47;;;15.10;99.90;;;;;;4994179;28;20055;-70
2022/09/10 05:27:36;;;;;;;31.57;27.57;;;15.10;99.90;;;;;;4993842;28;20082;-70
2022/09/10 05:30:03;;;;;;;30.20;26.43;;;15.20;99.90;;;;;;4993951;28;20101;-70
2022/09/10 05:32:31;;;;;;;35.33;28.27;;;15.10;99.90;;;;;;4993882;28;20407;-70
2022/09/10 05:34:57;;;;;;;37.10;27.53;;;15.10;99.90;;;;;;4992857;28;20054;-70
2022/09/10 05:37:23;;;;;;;35.60;27.87;;;15.10;99.90;;;;;;4996676;28;20038;-70
2022/09/10 05:39:48;;;;;;;34.57;27.03;;;15.10;99.90;;;;;;4997666;28;20051;-70
2022/09/10 05:42:14;;;;;;;34.93;27.87;;;15.20;99.90;;;;;;4997536;28;20442;-70
2022/09/10 05:44:40;;;;;;;36.73;28.97;;;15.10;99.90;;;;;;4997568;28;20046;-70
2022/09/10 05:47:06;;;;;;;33.37;28.03;;;15.20;99.90;;;;;;4996417;28;20053;-70
2022/09/10 05:49:33;;;;;;;38.30;27.20;;;15.20;99.90;;;;;;4998233;28;20100;-70
2022/09/10 05:51:58;;;;;;;32.33;27.47;;;15.20;99.90;;;;;;4998160;28;20050;-70
2022/09/10 05:54:24;;;;;;;38.13;29.40;;;15.20;99.90;;;;;;4997886;28;20455;-70
2022/09/10 05:56:50;;;;;;;34.17;27.30;;;15.30;99.90;;;;;;4997290;28;20050;-69
2022/09/10 05:59:16;;;;;;;36.20;28.67;;;15.30;99.90;;;;;;4996576;28;20050;-70
2022/09/10 06:01:42;;;;;;;33.20;27.43;;;15.30;99.90;;;;;;4997279;28;20129;-70
2022/09/10 06:04:09;;;;;;;34.83;27.40;;;15.30;99.90;;;;;;4998008;28;20068;-69
2022/09/10 06:06:35;;;;;;;35.73;27.20;;;15.30;99.90;;;;;;4997917;28;20054;-69
2022/09/10 06:09:01;;;;;;;32.50;26.97;;;15.40;99.90;;;;;;4996947;28;20421;-69
2022/09/10 06:11:26;;;;;;;34.00;27.27;;;15.40;99.90;;;;;;4997520;28;20081;-69
2022/09/10 06:13:52;;;;;;;34.17;25.63;;;15.40;99.90;;;;;;4997040;28;20103;-70
2022/09/10 06:16:18;;;;;;;35.43;26.83;;;15.40;99.90;;;;;;4996816;28;20058;-69
2022/09/10 06:18:44;;;;;;;31.30;27.07;;;15.50;99.90;;;;;;4997734;28;20105;-70
2022/09/10 06:21:18;;;;;;;31.90;26.23;;;15.50;99.90;;;;;;4996851;28;20059;-71
2022/09/10 06:23:44;;;;;;;32.43;25.97;;;15.50;99.90;;;;;;4997018;28;20510;-69
2022/09/10 06:26:18;;;;;;;31.07;26.47;;;15.50;99.90;;;;;;4996831;28;20108;-69
2022/09/10 06:28:45;;;;;;;37.00;28.08;;;15.50;99.90;;;;;;4996739;28;20100;-70
2022/09/10 06:31:15;;;;;;;32.00;26.43;;;15.50;99.90;;;;;;4996474;28;20085;-70
2022/09/10 06:33:42;;;;;;;29.47;25.60;;;15.50;99.90;;;;;;4997007;28;20113;-70
2022/09/10 06:36:09;;;;;;;30.63;26.70;;;15.50;99.90;;;;;;4997441;28;20374;-70
2022/09/10 06:38:35;;;;;;;32.77;26.53;;;15.60;99.90;;;;;;4996549;28;20082;-69
2022/09/10 06:41:04;;;;;;;31.67;25.87;;;15.60;99.90;;;;;;4996567;28;20049;-70
2022/09/10 06:43:35;;;;;;;32.23;25.80;;;15.60;99.90;;;;;;4996513;28;20402;-71
2022/09/10 06:46:08;;;;;;;30.70;26.33;;;15.60;99.90;;;;;;4996541;28;20495;-71
2022/09/10 06:48:38;;;;;;;32.23;26.63;;;15.70;99.90;;;;;;4996588;28;20054;-71
2022/09/10 06:51:06;;;;;;;28.30;24.47;;;15.70;99.90;;;;;;4996136;28;20054;-72
2022/09/10 06:53:33;;;;;;;30.43;25.37;;;15.70;99.90;;;;;;4996446;28;20046;-72
2022/09/10 06:56:01;;;;;;;29.90;25.80;;;15.80;99.90;;;;;;4995136;28;20046;-71
2022/09/10 06:58:31;;;;;;;31.07;25.77;;;15.80;99.90;;;;;;4995068;28;20077;-71
2022/09/10 07:00:56;;;;;;;29.73;23.40;;;15.90;99.90;;;;;;4996760;28;20050;-71
2022/09/10 07:03:22;;;;;;;29.10;24.60;;;15.90;99.90;;;;;;4996376;28;20127;-72
2022/09/10 07:05:49;;;;;;;31.63;25.00;;;15.90;99.90;;;;;;4996118;28;20054;-71
2022/09/10 07:08:16;;;;;;;29.17;24.33;;;16.00;99.90;;;;;;4995469;28;20050;-71
2022/09/10 07:10:44;;;;;;;28.07;24.30;;;15.90;99.90;;;;;;4996045;28;20061;-71
2022/09/10 07:13:11;;;;;;;30.87;23.30;;;15.90;99.90;;;;;;4995729;28;20046;-70
2022/09/10 07:15:45;;;;;;;30.57;24.27;;;15.90;99.90;;;;;;4995945;28;20050;-71
2022/09/10 07:18:14;;;;;;;31.77;23.43;;;16.00;99.90;;;;;;4962787;28;20046;-71
2022/09/10 07:20:44;;;;;;;32.17;23.23;;;15.90;99.90;;;;;;4979190;28;20479;-71
2022/09/10 07:23:12;;;;;;;32.70;25.30;;;15.90;99.90;;;;;;4995648;28;20065;-71
2022/09/10 07:25:38;;;;;;;34.40;23.90;;;16.00;99.90;;;;;;4995048;28;20058;-71
2022/09/10 07:28:05;;;;;;;28.00;22.70;;;16.00;99.90;;;;;;4996155;28;20052;-70
2022/09/10 07:30:34;;;;;;;26.10;23.03;;;16.00;99.90;;;;;;4995283;28;20052;-71
2022/09/10 07:33:00;;;;;;;30.03;23.77;;;16.00;99.90;;;;;;4995566;28;20388;-71
2022/09/10 07:35:26;;;;;;;28.03;23.03;;;16.00;99.90;;;;;;4995783;28;20045;-71
2022/09/10 07:37:51;;;;;;;28.57;23.93;;;16.10;99.90;;;;;;4995458;28;20042;-71
2022/09/10 07:40:17;;;;;;;26.83;23.93;;;16.10;99.90;;;;;;4996278;28;20049;-71
2022/09/10 07:42:43;;;;;;;27.57;21.97;;;16.20;99.90;;;;;;4994256;28;20046;-71
2022/09/10 07:45:14;;;;;;;28.00;23.93;;;16.30;99.90;;;;;;4978245;28;20109;-70
2022/09/10 07:47:43;;;;;;;27.53;22.83;;;16.40;99.90;;;;;;4995849;28;20046;-71
2022/09/10 07:50:10;;;;;;;26.30;22.43;;;16.50;99.90;;;;;;4995297;28;20054;-71
2022/09/10 07:52:36;;;;;;;25.50;22.77;;;16.60;99.90;;;;;;4995701;28;20128;-71
2022/09/10 07:55:02;;;;;;;25.87;23.10;;;16.70;99.90;;;;;;4994277;28;20125;-70
2022/09/10 07:57:30;;;;;;;24.43;21.90;;;16.90;99.90;;;;;;4994191;28;20054;-71
2022/09/10 07:59:59;;;;;;;27.20;21.33;;;16.90;99.90;;;;;;4994901;28;20402;-70
2022/09/10 08:02:25;;;;;;;24.60;21.10;;;17.00;99.90;;;;;;4995050;28;20495;-71
2022/09/10 08:04:51;;;;;;;25.73;21.30;;;17.00;99.90;;;;;;4995034;28;20050;-70
2022/09/10 08:07:20;;;;;;;25.20;20.03;;;17.10;99.90;;;;;;4994900;28;20042;-71
2022/09/10 08:09:46;;;;;;;25.80;20.80;;;17.20;99.90;;;;;;4993957;28;20047;-71
2022/09/10 08:12:12;;;;;;;23.47;20.27;;;17.40;99.90;;;;;;4994984;28;20046;-71
2022/09/10 08:14:37;;;;;;;25.23;20.73;;;17.50;99.90;;;;;;4995062;28;20483;-71
2022/09/10 08:17:04;;;;;;;26.10;19.23;;;17.60;99.90;;;;;;4994846;28;20042;-71
2022/09/10 08:19:30;;;;;;;21.40;18.20;;;17.70;99.90;;;;;;4994780;28;20447;-71
2022/09/10 08:21:56;;;;;;;20.67;17.10;;;17.70;99.90;;;;;;4994713;28;20170;-71
2022/09/10 08:24:22;;;;;;;20.43;18.23;;;17.80;99.90;;;;;;4995070;28;20058;-71
2022/09/10 08:26:48;;;;;;;25.63;18.40;;;17.80;99.90;;;;;;4995033;28;20109;-70
2022/09/10 08:29:13;;;;;;;21.20;18.43;;;17.70;99.90;;;;;;4995386;28;20050;-71
2022/09/10 08:31:40;;;;;;;20.60;17.47;;;17.80;99.90;;;;;;4994488;28;20042;-71
2022/09/10 08:34:08;;;;;;;19.47;17.37;;;18.00;99.90;;;;;;4994515;28;20076;-71
2022/09/10 08:36:33;;;;;;;19.07;17.13;;;18.20;99.90;;;;;;4994394;28;20553;-71
2022/09/10 08:38:59;;;;;;;17.57;15.40;;;18.30;99.90;;;;;;4994741;28;20038;-70
2022/09/10 08:41:37;;;;;;;20.00;16.57;;;18.50;99.90;;;;;;4994435;28;20459;-70
2022/09/10 08:44:08;;;;;;;16.37;14.53;;;18.60;99.90;;;;;;4994354;28;20085;-71
2022/09/10 08:46:56;;;;;;;17.57;13.80;;;18.70;99.90;;;;;;4993920;28;20133;-71
2022/09/10 08:49:41;;;;;;;15.50;13.40;;;18.80;99.90;;;;;;4994318;28;20060;-71
2022/09/10 08:52:15;;;;;;;15.17;13.50;;;18.90;99.90;;;;;;4994241;28;20050;-71
2022/09/10 08:54:59;;;;;;;;;;;18.90;99.90;;;;;;4995774;28;20073;-71
2022/09/10 08:57:40;;;;;;;16.93;13.53;;;19.00;99.90;;;;;;4994250;28;19922;-71
2022/09/10 09:00:11;;;;;;;15.27;12.97;;;19.00;99.90;;;;;;4994213;28;20089;-71
2022/09/10 09:02:48;;;;;;;14.93;13.40;;;19.00;99.90;;;;;;4994708;28;20129;-71
2022/09/10 09:05:23;;;;;;;15.03;11.27;;;19.10;99.90;;;;;;4994320;28;20487;-71
2022/09/10 09:07:50;;;;;;;13.82;12.43;;;19.10;99.90;;;;;;4994622;28;20046;-71
2022/09/10 09:10:52;;;;;;;13.73;11.10;;;19.20;99.90;;;;;;4993012;28;20054;-71
2022/09/10 09:13:25;;;;;;;12.43;9.97;;;19.20;99.90;;;;;;4995272;28;20057;-75
2022/09/10 09:16:10;;;;;;;14.70;10.97;;;;;;;;;;4998340;28;20453;-75
2022/09/10 09:18:36;;;;;;;12.07;10.02;;;;;;;;;;4997998;28;20077;-74
2022/09/10 09:21:12;;;;;;;15.07;12.13;;;;;;;;;;4997978;28;20061;-73
2022/09/10 09:23:48;;;;;;;12.47;10.63;;;;;;;;;;4997917;28;20096;-74
2022/09/10 09:26:15;;;;;;;11.20;9.80;;;;;;;;;;4997862;28;20538;-74
2022/09/10 09:28:43;;;;;;;12.90;10.40;;;;;;;;;;4998225;28;20360;-75
2022/09/10 09:31:14;;;;;;;14.50;12.13;;;;;;;;;;4998551;28;20126;-74
2022/09/10 09:33:40;;;;;;;14.23;11.53;;;;;;;;;;4997969;28;20478;-75
2022/09/10 09:36:07;;;;;;;16.37;10.53;;;;;;;;;;4997900;28;20482;-76
2022/09/10 09:38:39;;;;;;;12.17;10.97;;;;;;;;;;4997641;28;20038;-75
2022/09/10 09:41:24;;;;;;;12.77;11.03;;;;;;;;;;4997641;28;20046;-78
2022/09/10 09:43:59;;;;;;;14.45;10.50;;;;;;;;;;4997589;28;20080;-75
2022/09/10 09:46:25;;;;;;;17.57;11.03;;;;;;;;;;4996491;28;20046;-75
2022/09/10 09:48:56;;;;;;;11.70;9.40;;;19.10;99.90;;;;;;4997350;28;20093;-73
2022/09/10 09:51:24;;;;;;;10.40;8.27;;;19.10;99.90;;;;;;4997517;28;20081;-74
2022/09/10 09:53:53;;;;;;;12.03;10.00;;;19.20;99.90;;;;;;4997237;28;20104;-74
2022/09/10 09:56:24;;;;;;;11.90;9.53;;;19.30;99.90;;;;;;4997613;28;20077;-69
2022/09/10 09:58:51;;;;;;;10.47;8.23;;;;;;;;;;4997187;28;20157;-75
2022/09/10 10:01:21;;;;;;;11.20;8.40;;;;;;;;;;4997256;28;20085;-76
2022/09/10 10:03:57;;;;;;;15.20;9.17;;;;;;;;;;4997170;28;20486;-75
2022/09/10 10:06:25;;;;;;;14.73;9.37;;;;;;;;;;4997185;28;20570;-75
2022/09/10 10:09:12;;;;;;;18.17;9.67;;;;;;;;;;4996967;28;20065;-76
2022/09/10 10:11:39;;;;;;;13.67;8.90;;;;;;;;;;4982508;28;20055;-77
2022/09/10 10:14:21;;;;;;;12.43;9.93;;;;;;;;;;4995760;28;20042;-75
2022/09/10 10:16:53;;;;;;;12.93;9.80;;;19.10;99.90;;;;;;4979464;28;20137;-75
2022/09/10 10:19:31;;;;;;;14.03;10.60;;;19.10;99.90;;;;;;4997041;28;20057;-74
2022/09/10 10:22:20;;;;;;;15.10;9.73;;;19.20;99.90;;;;;;4997077;28;20096;-75
2022/09/10 10:24:49;;;;;;;11.37;8.10;;;19.30;99.90;;;;;;4995461;28;20196;-77
2022/09/10 10:27:24;;;;;;;12.37;9.17;;;;;;;;;;4996416;28;20057;-76
2022/09/10 10:29:51;;;;;;;11.00;8.60;;;;;;;;;;4996707;28;20112;-75
2022/09/10 10:32:19;;;;;;;11.13;8.17;;;;;;;;;;4996752;28;20050;-75
2022/09/10 10:34:52;;;;;;;10.17;7.40;;;;;;;;;;4995891;28;20118;-76
2022/09/10 10:37:47;;;;;;;9.83;6.80;;;19.50;99.90;;;;;;4997440;28;20151;-75
2022/09/10 10:40:25;;;;;;;10.30;7.83;;;19.60;99.90;;;;;;4987905;28;20054;-75
2022/09/10 10:43:14;;;;;;;14.83;9.60;;;19.70;99.90;;;;;;4995436;28;20771;-74
2022/09/10 10:46:16;;;;;;;13.43;9.00;;;19.70;99.90;;;;;;4996559;28;20062;-74
2022/09/10 10:48:51;;;;;;;12.17;10.10;;;;;;;;;;4987065;28;20054;-72
2022/09/10 10:51:37;;;;;;;12.63;9.10;;;19.70;99.90;;;;;;4995761;28;20065;-70
2022/09/10 10:54:15;;;;;;;12.77;9.53;;;19.70;99.90;;;;;;4995234;28;20053;-71
2022/09/10 10:56:54;;;;;;;15.50;10.27;;;19.70;99.90;;;;;;4996372;28;20049;-71
2022/09/10 10:59:33;;;;;;;12.33;8.20;;;19.80;99.90;;;;;;4997148;28;20050;-72
2022/09/10 11:02:21;;;;;;;12.80;8.87;;;19.70;99.90;;;;;;4996286;28;20046;-72
2022/09/10 11:04:58;;;;;;;11.10;8.53;;;19.70;99.90;;;;;;4996246;28;20055;-72
2022/09/10 11:07:38;;;;;;;11.60;9.23;;;19.70;99.90;;;;;;4995856;28;20129;-72
2022/09/10 11:10:28;;;;;;;10.97;8.90;;;19.70;99.90;;;;;;4996880;28;20058;-70
2022/09/10 11:13:13;;;;;;;13.43;8.87;;;;;;;;;;4994713;28;20065;-70
2022/09/10 11:15:40;;;;;;;12.35;9.02;;;;;;;;;;4995873;28;20046;-70
2022/09/10 11:18:09;;;;;;;14.23;8.80;;;;;;;;;;4996360;28;20058;-71
2022/09/10 11:20:41;;;;;;;10.87;8.47;;;19.60;99.90;;;;;;4995731;28;20478;-70
2022/09/10 11:23:46;;;;;;;12.27;8.27;;;19.60;99.90;;;;;;4995619;28;20046;-70
2022/09/10 11:26:18;;;;;;;13.32;8.80;;;19.60;99.90;;;;;;4995371;28;20418;-70
2022/09/10 11:28:58;;;;;;;11.67;7.87;;;19.60;99.90;;;;;;4995613;28;20042;-70
2022/09/10 11:31:32;;;;;;;11.00;8.27;;;19.60;99.90;;;;;;4996203;28;20062;-71
2022/09/10 11:34:11;;;;;;;10.45;7.90;;;19.70;99.90;;;;;;4995285;28;20085;-71
2022/09/10 11:36:49;;;;;;;11.47;7.03;;;19.70;99.90;;;;;;4995765;28;20107;-70
2022/09/10 11:39:22;;;;;;;8.17;6.20;;;19.80;99.90;;;;;;4995489;28;20062;-70
2022/09/10 11:41:51;;;;;;;11.70;7.50;;;19.90;99.90;;;;;;4995454;28;20506;-74
2022/09/10 11:44:36;;;;;;;10.80;7.77;;;20.00;99.90;;;;;;4995235;28;20522;-72
2022/09/10 11:47:20;;;;;;;9.45;7.07;;;20.00;99.90;;;;;;4995827;28;20049;-71
2022/09/10 11:50:00;;;;;;;10.57;8.27;;;20.00;99.90;;;;;;4994861;28;20050;-71
2022/09/10 11:52:28;;;;;;;13.30;8.83;;;;;;;;;;4996041;28;20104;-71
2022/09/10 11:54:55;;;;;;;10.53;7.20;;;;;;;;;;4995149;28;20046;-71
2022/09/10 11:57:34;;;;;;;10.50;7.17;;;;;;;;;;4995134;28;20086;-71
2022/09/10 12:00:07;;;;;;;11.43;7.63;;;;;;;;;;4994101;28;20093;-71
2022/09/10 12:02:42;;;;;;;10.97;7.90;;;;;;;;;;4995105;28;20054;-71
2022/09/10 12:05:12;;;;;;;10.97;7.70;;;;;;;;;;4994968;28;20050;-71
2022/09/10 12:07:44;;;;;;;11.67;7.63;;;;;;;;;;4994830;28;20035;-71
2022/09/10 12:10:21;;;;;;;13.40;9.70;;;;;;;;;;4994769;28;20105;-73
2022/09/10 12:12:52;;;;;;;10.50;8.07;;;;;;;;;;4994846;28;20442;-69
2022/09/10 12:15:23;;;;;;;12.07;7.97;;;;;;;;;;4995113;28;20054;-70
2022/09/10 12:18:00;;;;;;;9.87;6.47;;;19.90;99.90;;;;;;4994585;28;20487;-73
2022/09/10 12:20:38;;;;;;;9.80;6.73;;;19.90;99.90;;;;;;4994723;28;20042;-74
2022/09/10 12:23:04;;;;;;;8.53;5.67;;;20.00;99.90;;;;;;4994975;28;20046;-74
2022/09/10 12:25:32;;;;;;;11.77;7.50;;;20.30;99.90;;;;;;4994665;28;20487;-75
2022/09/10 12:28:00;;;;;;;9.37;6.80;;;20.30;99.90;;;;;;4994484;28;20043;-73
2022/09/10 12:30:30;;;;;;;10.80;6.60;;;20.30;99.90;;;;;;4994098;28;20438;-73
2022/09/10 12:33:11;;;;;;;11.80;7.30;;;;;;;;;;4994498;28;20407;-74
2022/09/10 12:35:42;;;;;;;12.60;8.23;;;;;;;;;;4993254;28;20046;-74
2022/09/10 12:38:27;;;;;;;10.17;7.87;;;;;;;;;;4994957;28;20051;-75
2022/09/10 12:40:55;;;;;;;10.10;6.68;;;20.20;99.90;;;;;;4994602;28;20435;-74
2022/09/10 12:43:44;;;;;;;10.63;7.03;;;;;;;;;;4993244;28;20097;-74
2022/09/10 12:46:13;;;;;;;9.80;8.03;;;;;;;;;;4994054;28;20133;-73
2022/09/10 12:48:49;;;;;;;9.87;6.87;;;20.30;99.90;;;;;;4994217;28;20081;-73
2022/09/10 12:51:15;;;;;;;13.07;6.97;;;20.20;99.90;;;;;;4994005;28;20508;-74
2022/09/10 12:53:59;;;;;;;10.97;7.57;;;20.30;99.90;;;;;;4993085;28;20047;-76
2022/09/10 12:56:28;;;;;;;8.17;6.20;;;20.30;99.90;;;;;;4994195;28;20050;-72
2022/09/10 12:59:08;;;;;;;10.97;7.53;;;20.40;99.90;;;;;;4994209;28;20050;-69
2022/09/10 13:01:41;;;;;;;9.30;7.00;;;20.40;99.90;;;;;;4993059;28;20057;-71